Airfield :
LOGIN :

Register | Disclaimer

   EN    FR    IT 

 










Legend :    VFR   Marginal VFR   IFR   Intensive IFR   Very Intensive IFR
Visi :
Ceiling :
>= 8 km
>= 3000ft
5 to 8 km
1000 to 3000 ft
1500m to 5 km
500 to 1000 ft
800 to 1500m
200 to 500 ft
< 800m
< 200 ft
Symbols :   Thunderstorms  Fog  Heavy snow  Heavy precipitations  Wind > 20 kt
SIGMETs :     Misc.  Thunderstorms  Icing  Turbulence  Mountain Waves  Volcanic Ashes







- Airport Elevation : 137 ft


LIPS - Istrana AFB Treviso

CURRENT METAR :
  • 151455Z 31003KT 7000 SCT090 08/07 Q0997 RMK BKN BKN200 VIS MIN 7000 WIND THR26 00000KT WIND THR08 31003KT WHT

EXPIRED METARs :
  • 151355Z 00000KT 8000 SCT090 09/07 Q0998 RMK OVC BKN200 VIS MIN 8000 WIND THR26 00000KT WIND THR08 00000KT BLU
  • 151255Z 00000KT 8000 SCT090 10/07 Q0998 RMK BKN BKN200 VIS MIN 8000 WIND THR26 00000KT WIND THR08 00000KT BLU

TAF TAF LIPS
Valid from the 15 at 15:00 until the 16 at 00:00 UTC


151400Z 1515/1524 VRB03KT 7000 SCT040 SCT070
TEMPO 1516/1518 4000 BR
No reported NOTAMs for that airfield.
1 SIGMET reported for the Milano FIR (LIMM) :
 
Severe turbulence
LIMM SIGMET 8 VALID 151440/151840 LIIP
LIMM MILANO FIR SEV TURB OBS WI N4424 E00903 - N4501 E01033 - N4424 E01231 - N4356 E01125 - N4354 E01017 - N4424 E00903 FL150/250 STNR NC=



MET'MAP, your aeronautical weather chart ! - Copyright ORBIFLY December 2007 - Disclaimer

ORBIFLY MET'MAP TEAM :

Programming & Development : Alexandra Zaïnal
Concept & Development : Baudouin d'Aumeries
Co-Development & Prog : Marc-Olivier Méhu
Technical & hardware support : Manuel Goepfert

Contact : metmap@orbifly.com




SOURCES & CREDITS :

   NOAA